Time;durP1;ratioP1;P1;durP2;ratioP2;P2;SDS_P1;SDS_P2;PMS_P1;PMS_P2;Temp;Humidity;BMP_temperature;BMP_pressure;BME280_temperature;BME280_humidity;BME280_pressure;Samples;Min_cycle;Max_cycle;Signal;HPM_P1;HPM_P2
2023/11/01 00:01:22;;;;;;;0.77;0.70;;;;;;;11.98;78.37;95160.28;6137699;23;20217;-87
2023/11/01 00:04:06;;;;;;;0.70;0.70;;;;;;;11.88;78.46;95147.78;6161579;23;20277;-87
2023/11/01 00:09:42;;;;;;;1.10;0.90;;;;;;;11.84;78.24;95144.00;6145019;23;20229;-87
2023/11/01 00:15:27;;;;;;;1.00;0.80;;;;;;;11.85;77.90;95142.22;6096649;23;20230;-87
2023/11/01 00:18:07;;;;;;;0.60;0.60;;;;;;;11.82;77.68;95138.25;6161207;23;20163;-88
2023/11/01 00:20:41;;;;;;;1.10;0.90;;;;;;;11.80;77.52;95137.63;6161409;23;20230;-87
2023/11/01 00:23:17;;;;;;;1.70;0.50;;;;;;;11.77;77.85;95136.22;6161769;23;20159;-89
2023/11/01 00:25:51;;;;;;;0.83;0.60;;;;;;;11.81;77.40;95136.66;6160676;23;20216;-88
2023/11/01 00:31:00;;;;;;;1.10;0.77;;;;;;;11.80;76.96;95111.03;6158053;23;20598;-88
2023/11/01 00:33:53;;;;;;;1.03;0.60;;;;;;;11.79;76.56;95101.72;6161310;23;20237;-86
2023/11/01 00:36:34;;;;;;;1.03;0.70;;;;;;;11.85;76.60;95109.47;6160720;23;20227;-87
2023/11/01 00:39:01;;;;;;;1.13;0.80;;;;;;;11.86;76.36;95098.16;6161627;23;20163;-86
2023/11/01 00:41:31;;;;;;;0.60;0.60;;;;;;;11.87;75.97;95099.75;6160449;23;20195;-88
2023/11/01 00:44:03;;;;;;;0.63;0.63;;;;;;;11.86;75.50;95079.31;6160368;23;20595;-87
2023/11/01 00:46:29;;;;;;;1.43;0.83;;;;;;;11.79;75.30;95081.09;6158510;23;20179;-86
2023/11/01 00:57:54;;;;;;;2.07;0.90;;;;;;;11.86;75.11;95071.59;6129707;23;20171;-88
2023/11/01 01:00:44;;;;;;;1.00;0.90;;;;;;;11.87;74.70;95055.91;6161400;23;20250;-86
2023/11/01 01:03:35;;;;;;;1.70;0.60;;;;;;;11.88;74.24;95043.81;6160135;23;20250;-88
2023/11/01 01:06:11;;;;;;;0.60;0.60;;;;;;;11.89;74.44;95050.56;6159436;23;20163;-87
2023/11/01 01:08:43;;;;;;;0.77;0.60;;;;;;;11.85;73.98;95037.25;6161004;23;20195;-86
2023/11/01 01:11:11;;;;;;;1.33;0.73;;;;;;;11.87;73.80;95027.53;6161485;23;20254;-87
2023/11/01 01:13:40;;;;;;;1.97;0.63;;;;;;;11.86;73.93;95033.69;6160844;23;20174;-87
2023/11/01 01:19:22;;;;;;;0.60;0.60;;;;;;;11.71;73.71;95028.69;6158302;23;20185;-86
2023/11/01 01:22:32;;;;;;;1.00;0.70;;;;;;;11.79;73.59;95017.41;6160338;23;20218;-86
2023/11/01 01:25:21;;;;;;;1.37;0.63;;;;;;;11.81;73.46;95006.91;6146352;23;20175;-87
2023/11/01 01:30:36;;;;;;;1.30;0.80;;;;;;;11.61;73.09;94986.22;6158742;23;20206;-89
2023/11/01 01:33:07;;;;;;;0.70;0.60;;;;;;;11.68;73.08;94990.41;6161149;23;20657;-86
2023/11/01 01:38:17;;;;;;;1.20;0.70;;;;;;;11.75;72.06;94956.84;6158301;23;20258;-86
2023/11/01 01:41:09;;;;;;;2.93;1.33;;;;;;;11.69;71.75;94937.84;6159999;23;20199;-87
2023/11/01 01:43:35;;;;;;;1.97;0.83;;;;;;;11.79;71.56;94934.88;6160798;23;20163;-89
2023/11/01 01:46:13;;;;;;;1.67;0.90;;;;;;;11.84;71.30;94913.66;6161613;23;20175;-87
2023/11/01 01:48:55;;;;;;;;;;;;;;;;;;;;;
2023/11/01 01:51:30;;;;;;;1.03;0.77;;;;;;;11.95;70.51;94893.19;6160850;23;20233;-89
2023/11/01 01:54:02;;;;;;;0.60;0.60;;;;;;;12.00;69.94;94867.56;6160957;23;20170;-87
2023/11/01 01:56:30;;;;;;;1.50;0.60;;;;;;;12.05;69.62;94851.50;6159671;23;20607;-88
2023/11/01 01:59:20;;;;;;;0.70;0.60;;;;;;;12.13;69.68;94847.88;6160662;23;20205;-88
2023/11/01 02:02:13;;;;;;;1.73;0.70;;;;;;;12.20;69.72;94849.44;6161939;23;20206;-87
2023/11/01 02:04:54;;;;;;;2.63;0.70;;;;;;;12.25;68.88;94820.47;6160848;23;20163;-87
2023/11/01 02:08:13;;;;;;;0.70;0.70;;;;;;;12.25;68.10;94800.59;6161225;23;20190;-87
2023/11/01 02:10:55;;;;;;;1.10;0.80;;;;;;;12.24;68.04;94787.91;6160015;23;20206;-87
2023/11/01 02:13:39;;;;;;;2.00;0.70;;;;;;;12.25;68.62;94800.59;6155292;23;20234;-87
2023/11/01 02:16:23;;;;;;;1.00;0.70;;;;;;;12.31;68.25;94794.63;6160072;23;20167;-87
2023/11/01 02:19:00;;;;;;;2.70;0.93;;;;;;;12.29;68.07;94791.47;6161014;23;20163;-89
2023/11/01 02:21:30;;;;;;;1.47;0.70;;;;;;;12.28;67.88;94778.75;6160188;23;20195;-87
2023/11/01 02:24:13;;;;;;;1.27;0.70;;;;;;;12.26;67.91;94778.16;6161094;23;20170;-88
2023/11/01 02:30:05;;;;;;;1.07;0.60;;;;;;;12.28;67.90;94771.81;6150855;23;20205;-89
2023/11/01 02:32:53;;;;;;;1.13;0.70;;;;;;;12.25;67.89;94763.69;6161979;23;20163;-88
2023/11/01 02:35:19;;;;;;;1.50;0.70;;;;;;;12.25;68.09;94776.59;6161235;23;20215;-88
2023/11/01 02:41:00;;;;;;;1.67;0.60;;;;;;;12.24;68.08;94764.69;6140468;23;20263;-87
2023/11/01 02:43:31;;;;;;;0.97;0.50;;;;;;;12.22;68.41;94779.56;6159075;23;20233;-87
2023/11/01 02:46:12;;;;;;;0.60;0.60;;;;;;;12.23;68.18;94774.22;6160305;23;20175;-87
2023/11/01 02:48:47;;;;;;;1.10;0.70;;;;;;;12.22;68.36;94772.63;6160979;23;20166;-88
2023/11/01 02:51:19;;;;;;;1.63;0.60;;;;;;;12.19;68.29;94765.28;6160053;23;20201;-88
2023/11/01 02:53:58;;;;;;;0.50;0.50;;;;;;;12.13;68.46;94773.84;6159542;23;20203;-87
2023/11/01 02:57:15;;;;;;;;;;;;;;;;;;;;;
2023/11/01 03:00:06;;;;;;;1.40;0.60;;;;;;;11.96;69.71;94826.91;6159865;23;20183;-89
2023/11/01 03:02:40;;;;;;;0.73;0.73;;;;;;;11.87;70.48;94843.59;6160418;23;20164;-87
2023/11/01 03:05:42;;;;;;;0.97;0.70;;;;;;;11.78;70.53;94845.59;6160749;23;20202;-86
2023/11/01 03:08:24;;;;;;;1.03;0.70;;;;;;;11.64;71.48;94875.75;6160499;23;20179;-86
2023/11/01 03:10:54;;;;;;;0.77;0.63;;;;;;;11.65;71.93;94885.06;6160514;23;20242;-86
2023/11/01 03:13:25;;;;;;;0.60;0.57;;;;;;;11.69;72.00;94896.56;6161090;23;20182;-89
2023/11/01 03:16:04;;;;;;;1.53;0.73;;;;;;;11.71;71.83;94883.50;6159593;23;20635;-87
2023/11/01 03:18:44;;;;;;;;;;;;;;;;;;;;;
2023/11/01 03:21:32;;;;;;;0.90;0.80;;;;;;;11.65;71.83;94866.22;6157830;23;20321;-88
2023/11/01 03:24:21;;;;;;;1.63;0.70;;;;;;;11.59;71.54;94864.44;6160250;23;20175;-86
2023/11/01 03:27:00;;;;;;;0.73;0.67;;;;;;;11.55;71.68;94860.66;6160435;23;20167;-89
2023/11/01 03:30:12;;;;;;;2.20;1.00;;;;;;;11.52;71.75;94867.03;6159316;23;20233;-85
2023/11/01 03:35:45;;;;;;;0.77;0.77;;;;;;;11.48;72.10;94880.53;6156199;23;20203;-86
2023/11/01 03:38:47;;;;;;;;;;;;;;;;;;;;;
2023/11/01 03:41:51;;;;;;;0.70;0.70;;;;;;;11.43;72.05;94875.97;6160513;23;20226;-86
2023/11/01 03:44:29;;;;;;;1.33;0.60;;;;;;;11.38;72.21;94899.75;6160438;23;20284;-88
2023/11/01 03:47:04;;;;;;;1.10;0.70;;;;;;;11.26;73.34;94913.41;6160401;23;20488;-89
2023/11/01 03:49:47;;;;;;;1.07;0.77;;;;;;;11.28;73.04;94909.66;6161242;23;20719;-88
2023/11/01 03:52:29;;;;;;;0.93;0.70;;;;;;;11.28;72.89;94894.19;6160135;23;20282;-88
2023/11/01 03:55:11;;;;;;;1.00;0.80;;;;;;;11.22;72.83;94900.13;6158436;23;20198;-88
2023/11/01 03:57:47;;;;;;;0.70;0.70;;;;;;;11.13;72.93;94901.31;6160620;23;20175;-87
2023/11/01 04:00:27;;;;;;;1.03;0.77;;;;;;;10.99;74.12;94943.50;6157663;23;20250;-87
2023/11/01 04:02:55;;;;;;;0.70;0.70;;;;;;;10.87;74.99;94945.84;6161233;23;20182;-87
2023/11/01 04:05:33;;;;;;;0.60;0.60;;;;;;;10.80;75.20;94969.97;6162092;23;20509;-88
2023/11/01 04:08:25;;;;;;;0.70;0.70;;;;;;;10.84;75.22;94968.59;6162589;23;20183;-87
2023/11/01 04:10:56;;;;;;;0.50;0.50;;;;;;;10.80;75.14;94957.09;6161907;23;20205;-85
2023/11/01 04:13:48;;;;;;;1.00;0.70;;;;;;;10.86;74.73;94943.47;6161671;23;20243;-87
2023/11/01 04:16:20;;;;;;;0.60;0.60;;;;;;;10.91;74.66;94943.69;6161305;23;20538;-86
2023/11/01 04:18:58;;;;;;;0.80;0.67;;;;;;;10.94;74.28;94923.50;6163179;23;20152;-88
2023/11/01 04:21:59;;;;;;;0.60;0.60;;;;;;;10.96;74.08;94913.00;6160171;23;20198;-86
2023/11/01 04:24:26;;;;;;;0.83;0.80;;;;;;;10.86;74.45;94897.09;6161835;23;20151;-88
2023/11/01 04:27:15;;;;;;;0.70;0.57;;;;;;;10.86;74.46;94908.19;6162482;23;20198;-86
2023/11/01 04:30:05;;;;;;;0.77;0.57;;;;;;;10.85;74.07;94900.66;6161821;23;20217;-87
2023/11/01 04:32:32;;;;;;;1.13;0.70;;;;;;;10.84;74.06;94893.94;6161930;23;20611;-86
2023/11/01 04:35:14;;;;;;;0.63;0.63;;;;;;;10.86;73.98;94885.03;6161899;23;20230;-88
2023/11/01 04:38:18;;;;;;;0.97;0.50;;;;;;;10.87;73.64;94878.88;6160618;23;20171;-86
2023/11/01 04:40:53;;;;;;;0.70;0.53;;;;;;;10.84;73.26;94860.47;6161543;23;20190;-89
2023/11/01 04:43:42;;;;;;;0.73;0.70;;;;;;;10.86;73.13;94863.63;6152518;23;20237;-87
2023/11/01 04:46:15;;;;;;;0.50;0.50;;;;;;;10.90;73.18;94854.53;6160665;23;20163;-87
2023/11/01 04:48:49;;;;;;;1.63;0.60;;;;;;;10.91;72.84;94853.53;6161213;23;20234;-85
2023/11/01 04:51:26;;;;;;;1.27;0.60;;;;;;;10.89;72.78;94835.72;6161435;23;20207;-88
2023/11/01 04:54:33;;;;;;;1.37;0.70;;;;;;;10.86;72.50;94822.44;6160288;23;20179;-88
2023/11/01 04:57:19;;;;;;;0.73;0.73;;;;;;;10.85;72.46;94831.13;6161197;23;20185;-86
2023/11/01 05:02:46;;;;;;;1.97;0.70;;;;;;;10.71;73.20;94841.44;6164640;23;20186;-85
2023/11/01 05:05:31;;;;;;;0.47;0.47;;;;;;;10.73;72.92;94836.09;6167075;23;20159;-88
2023/11/01 05:07:58;;;;;;;0.77;0.57;;;;;;;10.67;73.34;94847.16;6166015;23;20162;-86
2023/11/01 05:10:49;;;;;;;0.60;0.60;;;;;;;10.58;73.94;94845.75;6166636;23;20257;-86
2023/11/01 05:13:15;;;;;;;0.83;0.70;;;;;;;10.54;73.71;94849.72;6166597;23;20209;-87
2023/11/01 05:15:45;;;;;;;0.60;0.60;;;;;;;10.57;74.16;94859.63;6165533;23;20191;-86
2023/11/01 05:18:16;;;;;;;0.50;0.50;;;;;;;10.50;74.23;94840.78;6165935;23;20375;-86
2023/11/01 05:20:44;;;;;;;1.57;0.60;;;;;;;10.45;73.91;94843.94;6165710;23;20195;-88
2023/11/01 05:23:18;;;;;;;1.93;0.60;;;;;;;10.44;74.07;94844.91;6166191;23;20179;-88
2023/11/01 05:25:52;;;;;;;0.50;0.50;;;;;;;10.49;73.90;94839.19;6165890;23;20170;-85
2023/11/01 05:28:19;;;;;;;2.77;0.60;;;;;;;10.48;73.76;94843.53;6166302;23;20166;-88
2023/11/01 05:30:52;;;;;;;0.70;0.70;;;;;;;10.53;73.53;94843.75;6163939;23;20235;-88
2023/11/01 05:33:27;;;;;;;0.83;0.63;;;;;;;10.57;73.23;94829.53;6163446;23;20578;-86
2023/11/01 05:36:06;;;;;;;0.60;0.60;;;;;;;10.55;73.35;94813.47;6158688;23;20197;-86
2023/11/01 05:38:33;;;;;;;1.03;0.60;;;;;;;10.51;73.04;94809.72;6160796;23;20172;-86
2023/11/01 05:41:08;;;;;;;0.60;0.60;;;;;;;10.48;73.37;94817.03;6160371;23;20202;-87
2023/11/01 05:43:54;;;;;;;0.60;0.60;;;;;;;10.49;73.68;94827.13;6163818;23;20214;-88
2023/11/01 05:46:48;;;;;;;0.87;0.60;;;;;;;10.51;73.38;94814.84;6161945;23;20166;-86
2023/11/01 05:49:49;;;;;;;;;;;;;;;;;;;;;
2023/11/01 05:52:23;;;;;;;2.20;0.70;;;;;;;10.48;73.29;94811.88;6162440;23;20189;-86
2023/11/01 05:54:52;;;;;;;0.67;0.67;;;;;;;10.43;73.46;94812.44;6164803;23;20171;-87
2023/11/01 05:57:31;;;;;;;0.73;0.73;;;;;;;10.42;73.99;94834.00;6165419;23;20720;-86
2023/11/01 06:00:26;;;;;;;;;;;;;;;;;;;;;
2023/11/01 06:02:53;;;;;;;1.57;0.80;;;;;;;10.45;73.65;94820.78;6165892;23;20179;-86
2023/11/01 06:05:22;;;;;;;0.70;0.70;;;;;;;10.45;73.34;94817.41;6165305;23;20179;-86
2023/11/01 06:07:53;;;;;;;0.70;0.70;;;;;;;10.48;73.14;94806.72;6165270;23;20230;-87
2023/11/01 06:10:24;;;;;;;0.70;0.70;;;;;;;10.49;73.06;94803.16;6165944;23;20562;-86
2023/11/01 06:12:55;;;;;;;0.70;0.60;;;;;;;10.53;73.26;94804.38;6165333;23;20182;-85
2023/11/01 06:15:22;;;;;;;0.73;0.73;;;;;;;10.55;73.03;94805.75;6165543;23;20163;-87
2023/11/01 06:17:48;;;;;;;0.93;0.87;;;;;;;10.54;72.83;94788.72;6163945;23;20230;-86
2023/11/01 06:20:22;;;;;;;0.63;0.63;;;;;;;10.52;72.68;94785.56;6165099;23;20254;-89
2023/11/01 06:22:49;;;;;;;1.00;0.60;;;;;;;10.49;72.79;94787.72;6166515;23;20164;-87
2023/11/01 06:25:34;;;;;;;0.83;0.83;;;;;;;10.48;73.32;94810.09;6165884;23;20179;-86
2023/11/01 06:28:08;;;;;;;0.83;0.80;;;;;;;10.50;72.82;94802.97;6165563;23;20178;-87
2023/11/01 06:30:35;;;;;;;2.77;0.80;;;;;;;10.49;73.03;94788.50;6164744;23;20202;-87
2023/11/01 06:33:04;;;;;;;0.80;0.77;;;;;;;10.55;72.82;94785.16;6166105;23;20192;-86
2023/11/01 06:35:55;;;;;;;1.57;1.00;;;;;;;10.57;72.62;94769.53;6165858;23;20190;-86
2023/11/01 06:38:21;;;;;;;0.90;0.70;;;;;;;10.54;72.33;94773.28;6165338;23;20167;-85
2023/11/01 06:40:56;;;;;;;1.10;1.00;;;;;;;10.56;72.04;94776.47;6166223;23;20191;-86
2023/11/01 06:43:33;;;;;;;1.17;0.90;;;;;;;10.54;71.75;94752.69;6164369;23;20506;-87
2023/11/01 06:45:59;;;;;;;0.93;0.80;;;;;;;10.61;71.53;94757.84;6165728;23;20214;-85
2023/11/01 06:48:31;;;;;;;0.80;0.80;;;;;;;10.69;71.80;94763.59;6168287;23;20183;-86
2023/11/01 06:51:14;;;;;;;0.80;0.80;;;;;;;10.75;71.15;94746.56;6167466;23;20734;-88
2023/11/01 06:53:40;;;;;;;0.80;0.80;;;;;;;10.91;71.09;94746.19;6165737;23;20183;-87
2023/11/01 06:56:13;;;;;;;1.20;0.90;;;;;;;11.18;70.32;94722.94;6164506;23;20202;-86
2023/11/01 06:58:50;;;;;;;2.37;0.90;;;;;;;11.78;68.77;94688.28;6163653;23;20282;-87
2023/11/01 07:01:17;;;;;;;1.10;1.00;;;;;;;12.39;66.31;94582.69;6163175;23;20729;-85
2023/11/01 07:03:57;;;;;;;1.20;1.10;;;;;;;13.00;64.65;94537.19;6163702;23;20178;-86
2023/11/01 07:06:26;;;;;;;1.30;1.20;;;;;;;13.58;62.92;94457.28;6161666;23;20215;-88
2023/11/01 07:09:02;;;;;;;1.17;1.03;;;;;;;13.91;60.87;94368.00;6163376;23;20205;-86
2023/11/01 07:11:35;;;;;;;1.10;1.00;;;;;;;14.18;60.94;94377.66;6161894;23;20258;-88
2023/11/01 07:14:16;;;;;;;0.90;0.90;;;;;;;14.18;59.31;94284.47;6160655;23;20222;-87
2023/11/01 07:16:50;;;;;;;1.40;1.10;;;;;;;14.06;59.12;94269.97;6160681;23;20164;-86
2023/11/01 07:19:32;;;;;;;2.13;1.10;;;;;;;14.04;59.63;94287.56;6160354;23;20160;-86
2023/11/01 07:22:02;;;;;;;1.10;1.00;;;;;;;14.01;59.72;94285.41;6157551;23;20202;-86
2023/11/01 07:24:42;;;;;;;1.20;1.10;;;;;;;13.97;59.49;94282.50;6157737;23;20183;-87
2023/11/01 07:27:24;;;;;;;1.20;1.10;;;;;;;14.05;58.98;94255.44;6157917;23;20476;-88
2023/11/01 07:30:12;;;;;;;2.33;1.00;;;;;;;14.27;58.70;94251.22;6156557;23;20202;-87
2023/11/01 07:33:03;;;;;;;2.00;0.90;;;;;;;14.48;58.35;94223.91;6158149;23;20170;-86
2023/11/01 07:35:41;;;;;;;1.07;0.97;;;;;;;14.63;57.32;94171.56;6157642;23;20173;-86
2023/11/01 07:38:11;;;;;;;1.40;1.10;;;;;;;14.68;57.77;94197.53;6159005;23;20167;-87
2023/11/01 07:40:41;;;;;;;2.22;1.98;;;;;;;14.91;57.61;94196.59;6161090;23;20213;-86
2023/11/01 07:43:08;;;;;;;3.57;1.13;;;;;;;14.97;56.51;94133.47;6161105;23;20554;-86
2023/11/01 07:46:07;;;;;;;1.55;1.10;;;;;;;15.15;56.60;94152.09;6161359;23;20178;-87
2023/11/01 07:49:22;;;;;;;1.85;1.40;;;;;;;15.42;55.89;94138.41;6165960;23;20156;-86
2023/11/01 07:52:15;;;;;;;1.50;1.13;;;;;;;15.68;55.35;94111.78;6165515;23;20218;-87
2023/11/01 07:55:19;;;;;;;1.30;1.20;;;;;;;15.71;54.64;94063.81;6166748;23;20159;-89
2023/11/01 07:58:10;;;;;;;2.00;1.38;;;;;;;16.02;53.99;94051.88;6165378;23;20225;-89
2023/11/01 08:01:03;;;;;;;1.00;0.90;;;;;;;16.05;53.92;94041.00;6165584;23;20281;-87
2023/11/01 08:06:49;;;;;;;1.25;1.00;;;;;;;16.10;53.00;93955.38;6135982;23;20167;-87
2023/11/01 08:09:34;;;;;;;1.20;0.93;;;;;;;15.97;53.58;93989.53;6161133;23;20174;-87
2023/11/01 08:13:06;;;;;;;3.45;1.02;;;;;;;15.84;53.54;93981.13;6165045;23;20651;-88
2023/11/01 08:15:58;;;;;;;0.70;0.70;;;;;;;15.73;53.47;93978.72;6117703;23;20183;-88
2023/11/01 08:18:49;;;;;;;1.70;0.90;;;;;;;15.69;53.94;94016.56;6165126;23;20254;-89
2023/11/01 08:21:37;;;;;;;1.60;1.50;;;;;;;15.48;53.91;94000.78;6164194;23;20246;-87
2023/11/01 08:24:39;;;;;;;1.15;0.90;;;;;;;15.26;53.69;93973.31;6162911;23;20253;-87
2023/11/01 08:27:23;;;;;;;0.85;0.85;;;;;;;14.90;54.43;94000.69;6085790;23;20174;-87
2023/11/01 08:29:58;;;;;;;0.80;0.80;;;;;;;14.81;54.60;94014.06;6162270;23;20203;-87
2023/11/01 08:42:16;;;;;;;0.80;0.80;;;;;;;15.41;53.88;93981.25;6148528;23;20242;-87
2023/11/01 08:44:54;;;;;;;3.83;3.47;;;;;;;15.33;54.57;94018.00;6162937;23;20210;-89
2023/11/01 08:47:45;;;;;;;3.70;2.20;;;;;;;15.20;54.93;94019.19;6162296;23;20193;-89
2023/11/01 08:50:27;;;;;;;1.00;0.90;;;;;;;15.33;54.38;94018.00;6163208;23;20258;-87
2023/11/01 08:53:32;;;;;;;2.47;0.80;;;;;;;15.43;54.36;94016.28;6160058;23;20194;-87
2023/11/01 08:56:33;;;;;;;1.00;0.80;;;;;;;15.44;54.27;94014.47;6125442;23;20179;-87
2023/11/01 08:59:23;;;;;;;1.17;0.90;;;;;;;15.29;54.30;94002.16;6163826;23;20180;-89
2023/11/01 09:02:04;;;;;;;0.73;0.73;;;;;;;15.50;54.78;94045.41;6144692;23;20262;-87
2023/11/01 09:04:33;;;;;;;2.97;0.70;;;;;;;15.67;56.01;94094.63;6163542;23;20174;-86
2023/11/01 09:07:09;;;;;;;0.90;0.80;;;;;;;15.82;54.50;94035.09;6163609;23;20171;-87
2023/11/01 09:10:00;;;;;;;1.30;0.80;;;;;;;16.00;53.65;93981.25;6163010;23;20183;-87
2023/11/01 09:12:41;;;;;;;0.70;0.70;;;;;;;15.99;52.73;93933.72;6054614;23;20564;-88
2023/11/01 09:15:17;;;;;;;0.70;0.70;;;;;;;15.77;52.65;93891.56;6161464;23;20506;-87
2023/11/01 09:17:56;;;;;;;1.08;0.70;;;;;;;15.74;53.25;93925.78;6156196;23;20241;-86
2023/11/01 09:26:07;;;;;;;0.65;0.60;;;;;;;16.00;52.59;93926.72;6144455;23;20181;-86
2023/11/01 09:28:58;;;;;;;1.00;0.82;;;;;;;15.92;51.91;93870.09;6159218;23;20174;-87
2023/11/01 09:34:23;;;;;;;0.82;0.60;;;;;;;15.74;52.35;93851.34;6156493;23;20646;-88
2023/11/01 09:37:13;;;;;;;0.85;0.75;;;;;;;15.94;52.73;93902.56;6158592;23;20367;-87
2023/11/01 09:39:56;;;;;;;1.67;0.70;;;;;;;16.02;52.38;93889.09;6139149;23;20171;-87
2023/11/01 09:42:27;;;;;;;0.50;0.50;;;;;;;15.88;51.50;93836.88;6157274;23;20667;-87
2023/11/01 09:45:00;;;;;;;1.75;0.70;;;;;;;15.79;52.06;93855.75;6158515;23;20179;-86
2023/11/01 09:47:50;;;;;;;0.80;0.80;;;;;;;15.84;51.97;93858.38;6157036;23;20179;-88
2023/11/01 09:50:35;;;;;;;0.82;0.70;;;;;;;15.81;51.47;93827.72;6162334;23;20263;-87
2023/11/01 09:55:51;;;;;;;1.35;1.13;;;;;;;15.80;51.40;93816.56;6160961;23;20185;-86
2023/11/01 09:58:39;;;;;;;1.40;1.13;;;;;;;15.95;52.08;93869.63;6161739;23;20167;-88
2023/11/01 10:01:19;;;;;;;1.73;0.70;;;;;;;15.97;51.49;93828.63;6137424;23;20206;-87
2023/11/01 10:03:56;;;;;;;1.23;0.82;;;;;;;15.92;50.87;93784.47;6163470;23;20223;-86
2023/11/01 10:06:28;;;;;;;1.45;0.80;;;;;;;15.91;50.49;93756.94;6162206;23;20375;-87
2023/11/01 10:09:02;;;;;;;1.20;1.10;;;;;;;15.96;51.04;93773.31;6162809;23;20234;-88
2023/11/01 10:11:49;;;;;;;0.90;0.75;;;;;;;15.96;50.36;93736.22;6162149;23;20206;-87
2023/11/01 10:14:32;;;;;;;1.52;0.90;;;;;;;16.05;50.51;93765.81;6161605;23;20524;-87
2023/11/01 10:17:00;;;;;;;0.80;0.80;;;;;;;16.12;51.22;93756.75;6161519;23;20210;-87
2023/11/01 10:19:28;;;;;;;1.40;0.90;;;;;;;16.20;50.98;93787.41;6161790;23;20185;-87
2023/11/01 10:21:59;;;;;;;1.73;0.80;;;;;;;16.17;50.65;93767.16;6161513;23;20190;-87
2023/11/01 10:24:33;;;;;;;1.55;0.90;;;;;;;16.22;50.70;93756.00;6161582;23;20179;-86
2023/11/01 10:27:06;;;;;;;0.70;0.70;;;;;;;16.28;50.45;93749.00;6163148;23;20167;-88
2023/11/01 10:29:53;;;;;;;1.05;0.82;;;;;;;16.26;50.10;93688.75;6160802;23;20195;-87
2023/11/01 10:32:39;;;;;;;0.60;0.60;;;;;;;16.29;50.43;93732.41;6161578;23;20194;-87
2023/11/01 10:35:17;;;;;;;1.40;1.17;;;;;;;16.18;50.32;93698.59;6162798;23;20170;-87
2023/11/01 10:37:46;;;;;;;1.58;1.08;;;;;;;16.24;49.74;93644.88;6163942;23;20175;-87
2023/11/01 10:40:20;;;;;;;1.33;1.00;;;;;;;16.20;49.79;93636.81;6164595;23;20194;-87
2023/11/01 10:43:10;;;;;;;3.42;0.82;;;;;;;16.31;50.39;93691.38;6164431;23;20623;-86
2023/11/01 10:45:45;;;;;;;1.13;0.57;;;;;;;16.35;50.19;93684.63;6163583;23;20412;-87
2023/11/01 10:48:20;;;;;;;0.70;0.70;;;;;;;16.42;49.71;93672.94;6162209;23;20166;-86
2023/11/01 10:50:52;;;;;;;1.75;0.80;;;;;;;16.44;49.83;93670.06;6163081;23;20199;-88
2023/11/01 10:53:34;;;;;;;1.20;0.80;;;;;;;16.54;49.62;93670.88;6160409;23;20202;-87
2023/11/01 10:56:28;;;;;;;0.60;0.60;;;;;;;16.59;50.02;93667.47;6162812;23;20159;-86
2023/11/01 10:59:29;;;;;;;1.60;0.80;;;;;;;16.65;49.86;93670.88;6152179;23;20179;-86
2023/11/01 11:02:02;;;;;;;1.13;0.90;;;;;;;16.72;49.88;93677.41;6160335;23;20235;-89
2023/11/01 11:04:36;;;;;;;0.95;0.68;;;;;;;16.73;48.92;93626.19;6160541;23;20163;-88
2023/11/01 11:07:18;;;;;;;0.65;0.65;;;;;;;16.61;49.19;93623.03;6161187;23;20236;-89
2023/11/01 11:09:47;;;;;;;14.35;12.85;;;;;;;16.65;48.91;93611.13;6160414;23;20198;-86
2023/11/01 11:12:30;;;;;;;1.77;0.90;;;;;;;16.79;48.92;93615.50;6158933;23;20198;-86
2023/11/01 11:15:03;;;;;;;1.30;1.20;;;;;;;16.85;49.65;93643.06;6157399;23;20179;-88
2023/11/01 11:17:30;;;;;;;1.20;0.90;;;;;;;16.85;48.04;93559.13;6159692;23;20546;-87
2023/11/01 11:20:18;;;;;;;1.13;0.50;;;;;;;16.83;46.90;93491.03;6159866;23;20199;-87
2023/11/01 11:23:14;;;;;;;0.50;0.50;;;;;;;16.80;45.40;93406.56;6160207;23;20163;-87
2023/11/01 11:25:51;;;;;;;1.42;0.73;;;;;;;16.73;46.35;93465.09;6149343;23;20186;-87
2023/11/01 11:28:47;;;;;;;3.38;0.60;;;;;;;16.80;46.77;93504.53;6161095;23;20190;-86
2023/11/01 11:31:20;;;;;;;0.82;0.60;;;;;;;16.82;47.02;93515.44;6159693;23;20202;-86
2023/11/01 11:34:20;;;;;;;0.70;0.70;;;;;;;16.79;46.75;93488.16;6159808;23;20163;-88
2023/11/01 11:37:12;;;;;;;1.02;0.75;;;;;;;16.72;46.88;93502.50;6038451;23;20173;-87
2023/11/01 11:40:08;;;;;;;1.25;0.90;;;;;;;16.54;47.48;93512.41;6039854;23;20210;-85
2023/11/01 11:45:52;;;;;;;1.42;0.70;;;;;;;16.23;47.40;93518.69;6102699;23;20231;-88
2023/11/01 11:48:52;;;;;;;10.77;9.60;;;;;;;16.18;47.97;93547.22;6158087;23;20164;-87
2023/11/01 11:51:18;;;;;;;1.77;1.40;;;;;;;16.22;47.86;93559.44;6157553;23;20226;-87
2023/11/01 11:53:48;;;;;;;1.15;0.68;;;;;;;16.20;47.01;93498.44;6158671;23;20185;-86
2023/11/01 11:56:25;;;;;;;1.50;0.80;;;;;;;16.26;47.28;93487.00;6160686;23;20175;-86
2023/11/01 11:59:17;;;;;;;1.90;0.82;;;;;;;16.30;46.79;93464.66;6162341;23;20163;-86
2023/11/01 12:01:46;;;;;;;1.30;0.70;;;;;;;16.38;47.35;93484.09;6159345;23;20214;-86
2023/11/01 12:04:19;;;;;;;1.17;0.73;;;;;;;16.35;47.42;93495.06;6159771;23;20190;-87
2023/11/01 12:07:03;;;;;;;1.92;0.80;;;;;;;16.28;47.83;93507.50;6159637;23;20163;-85
2023/11/01 12:09:41;;;;;;;1.48;1.00;;;;;;;16.42;48.26;93548.25;6158388;23;20613;-87
2023/11/01 12:12:24;;;;;;;1.15;0.60;;;;;;;16.51;47.14;93499.16;6159167;23;20187;-87
2023/11/01 12:15:13;;;;;;;1.88;0.98;;;;;;;16.42;47.12;93477.34;6159096;23;20186;-85
2023/11/01 12:17:54;;;;;;;1.83;0.93;;;;;;;16.52;46.79;93454.75;6158623;23;20198;-87
2023/11/01 12:20:41;;;;;;;0.70;0.60;;;;;;;16.55;46.96;93464.56;6157108;23;20203;-86
2023/11/01 12:23:15;;;;;;;1.45;0.95;;;;;;;16.54;47.55;93489.03;6157729;23;20175;-87
2023/11/01 12:26:22;;;;;;;0.82;0.73;;;;;;;16.64;47.33;93477.06;6159493;23;20154;-88
2023/11/01 12:29:08;;;;;;;6.25;5.80;;;;;;;16.71;46.64;93457.56;6159067;23;20175;-86
2023/11/01 12:31:41;;;;;;;16.48;13.63;;;;;;;16.88;46.64;93437.22;6156692;23;20202;-86
2023/11/01 12:34:16;;;;;;;2.00;0.80;;;;;;;16.82;46.59;93430.47;6158354;23;20194;-89
2023/11/01 12:37:10;;;;;;;1.42;1.05;;;;;;;16.80;47.44;93484.53;6158362;23;20237;-88
2023/11/01 12:39:40;;;;;;;2.17;0.98;;;;;;;16.86;46.80;93439.28;6158260;23;20519;-86
2023/11/01 12:42:33;;;;;;;2.25;0.50;;;;;;;16.87;45.77;93375.09;6159420;23;20167;-87
2023/11/01 12:45:08;;;;;;;0.63;0.63;;;;;;;16.88;45.39;93351.44;6158108;23;20175;-87
2023/11/01 12:47:45;;;;;;;0.60;0.60;;;;;;;16.95;45.73;93364.13;6158701;23;20171;-86
2023/11/01 12:50:16;;;;;;;0.73;0.70;;;;;;;16.91;45.11;93350.91;6156011;23;20241;-89
2023/11/01 12:56:03;;;;;;;2.88;0.70;;;;;;;16.64;45.17;93308.97;6154385;23;20181;-86
2023/11/01 12:58:42;;;;;;;0.73;0.73;;;;;;;16.55;45.37;93326.91;6156051;23;20175;-86
2023/11/01 13:01:23;;;;;;;;;;;;;;;;;;;;;
2023/11/01 13:03:57;;;;;;;2.28;0.80;;;;;;;16.50;46.74;93409.28;6154197;23;20250;-88
2023/11/01 13:06:28;;;;;;;1.40;0.80;;;;;;;16.67;46.27;93396.78;6155581;23;20197;-87
2023/11/01 13:09:04;;;;;;;1.58;0.80;;;;;;;16.90;46.18;93396.13;6156323;23;20186;-87
2023/11/01 13:11:33;;;;;;;0.70;0.70;;;;;;;17.06;46.03;93372.63;6155912;23;20197;-88
2023/11/01 13:14:06;;;;;;;0.90;0.70;;;;;;;17.07;45.39;93335.97;6155134;23;20277;-86
2023/11/01 13:16:42;;;;;;;1.00;0.80;;;;;;;16.99;45.92;93333.94;6157076;23;20163;-87
2023/11/01 13:19:26;;;;;;;6.43;0.82;;;;;;;17.03;45.75;93349.78;6155077;23;20201;-86
2023/11/01 13:22:01;;;;;;;0.85;0.70;;;;;;;16.92;46.43;93362.06;6156619;23;20694;-86
2023/11/01 13:24:30;;;;;;;5.38;0.88;;;;;;;17.03;45.82;93349.78;6155870;23;20193;-87
2023/11/01 13:26:55;;;;;;;2.92;0.90;;;;;;;17.08;45.84;93355.72;6157977;23;20185;-86
2023/11/01 13:29:22;;;;;;;8.35;1.40;;;;;;;17.22;45.84;93343.66;6160533;23;20211;-87
2023/11/01 13:31:50;;;;;;;2.72;0.80;;;;;;;17.23;45.55;93323.63;6161189;23;20201;-87
2023/11/01 13:34:25;;;;;;;0.95;0.68;;;;;;;17.14;46.30;93372.03;6161287;23;20204;-86
2023/11/01 13:39:43;;;;;;;0.60;0.60;;;;;;;16.85;45.92;93346.78;6159516;23;20210;-86
2023/11/01 13:42:14;;;;;;;0.60;0.60;;;;;;;16.73;46.30;93342.97;6163244;23;20171;-86
2023/11/01 13:44:56;;;;;;;;;;;;;;;;;;;;;
2023/11/01 13:47:31;;;;;;;0.90;0.70;;;;;;;16.75;46.49;93372.03;6159597;23;20213;-87
2023/11/01 13:50:00;;;;;;;0.68;0.60;;;;;;;16.59;47.03;93387.66;6162363;23;20198;-88
2023/11/01 13:52:35;;;;;;;1.33;0.90;;;;;;;16.72;47.70;93416.75;6163500;23;20552;-87
2023/11/01 13:55:04;;;;;;;0.50;0.50;;;;;;;16.98;46.90;93394.00;6162398;23;20202;-86